createdAt,value
2023-05-14T00:01:53.297Z,24.23
2023-05-14T00:04:22.903Z,23.87
2023-05-14T00:06:51.360Z,24.70
2023-05-14T00:09:21.285Z,23.37
2023-05-14T00:11:49.673Z,23.17
2023-05-14T00:14:18.530Z,20.63
2023-05-14T00:16:46.827Z,19.37
2023-05-14T00:19:15.622Z,20.57
2023-05-14T00:21:44.407Z,20.43
2023-05-14T00:24:12.753Z,23.07
2023-05-14T00:26:42.592Z,18.33
2023-05-14T00:29:11.208Z,18.07
2023-05-14T00:31:39.849Z,20.03
2023-05-14T00:34:08.415Z,20.43
2023-05-14T00:36:36.802Z,19.77
2023-05-14T00:39:05.530Z,19.43
2023-05-14T00:41:33.995Z,19.97
2023-05-14T00:44:04.094Z,17.47
2023-05-14T00:46:32.461Z,18.33
2023-05-14T00:49:01.295Z,16.60
2023-05-14T00:51:29.728Z,12.77
2023-05-14T00:53:58.163Z,11.93
2023-05-14T00:56:27.867Z,11.90
2023-05-14T00:58:56.307Z,12.57
2023-05-14T01:01:28.870Z,12.20
2023-05-14T01:03:58.368Z,11.67
2023-05-14T01:06:34.834Z,11.60
2023-05-14T01:09:18.789Z,11.83
2023-05-14T01:11:54.928Z,11.37
2023-05-14T01:14:31.952Z,11.23
2023-05-14T01:17:05.257Z,11.10
2023-05-14T01:19:40.708Z,11.23
2023-05-14T01:22:10.571Z,12.33
2023-05-14T01:24:39.356Z,11.73
2023-05-14T01:27:11.907Z,12.53
2023-05-14T01:29:44.471Z,11.60
2023-05-14T01:32:15.180Z,10.87
2023-05-14T01:34:44.912Z,10.70
2023-05-14T01:37:15.818Z,10.97
2023-05-14T01:39:45.965Z,10.70
2023-05-14T01:42:14.848Z,11.03
2023-05-14T01:44:45.241Z,11.33
2023-05-14T01:47:13.608Z,11.07
2023-05-14T01:49:42.236Z,10.47
2023-05-14T01:52:11.034Z,11.63
2023-05-14T01:54:41.708Z,12.30
2023-05-14T01:57:10.272Z,13.83
2023-05-14T01:59:38.744Z,21.63
2023-05-14T02:02:07.184Z,21.73
2023-05-14T02:04:37.625Z,24.10
2023-05-14T02:07:06.407Z,22.93
2023-05-14T02:09:34.748Z,24.23
2023-05-14T02:12:04.509Z,24.57
2023-05-14T02:14:32.880Z,25.03
2023-05-14T02:17:01.208Z,24.63
2023-05-14T02:19:30.527Z,25.30
2023-05-14T02:22:00.490Z,25.97
2023-05-14T02:24:29.032Z,24.77
2023-05-14T02:27:00.264Z,26.03
2023-05-14T02:29:30.116Z,26.93
2023-05-14T02:31:58.643Z,26.60
2023-05-14T02:34:27.237Z,23.70
2023-05-14T02:36:56.812Z,21.70
2023-05-14T02:39:25.080Z,20.30
2023-05-14T02:41:53.412Z,15.90
2023-05-14T02:44:21.835Z,13.60
2023-05-14T02:46:51.605Z,11.57
2023-05-14T02:49:19.940Z,13.47
2023-05-14T02:51:48.247Z,13.47
2023-05-14T02:54:17.258Z,12.80
2023-05-14T02:56:45.716Z,12.53
2023-05-14T02:59:14.067Z,12.83
2023-05-14T03:01:42.710Z,12.70
2023-05-14T03:04:12.940Z,10.90
2023-05-14T03:06:41.297Z,10.93
2023-05-14T03:09:10.117Z,10.77
2023-05-14T03:11:38.496Z,10.77
2023-05-14T03:14:06.842Z,9.97
2023-05-14T03:16:35.236Z,10.33
2023-05-14T03:19:04.029Z,10.03
2023-05-14T03:21:33.939Z,8.93
2023-05-14T03:24:02.755Z,9.47
2023-05-14T03:26:31.152Z,9.23
2023-05-14T03:28:59.465Z,9.20
2023-05-14T03:31:27.839Z,9.33
2023-05-14T03:33:58.089Z,10.53
2023-05-14T03:36:26.594Z,10.77
2023-05-14T03:38:56.584Z,9.93
2023-05-14T03:41:25.059Z,8.40
2023-05-14T03:43:53.439Z,7.70
2023-05-14T03:46:21.816Z,8.20
2023-05-14T03:48:50.335Z,7.73
2023-05-14T03:51:19.232Z,6.93
2023-05-14T03:53:47.671Z,6.57
2023-05-14T03:56:17.530Z,6.77
2023-05-14T03:58:45.901Z,5.60
2023-05-14T04:01:14.343Z,6.70
2023-05-14T04:03:42.816Z,6.17
2023-05-14T04:06:11.803Z,7.43
2023-05-14T04:08:40.194Z,7.70
2023-05-14T04:11:08.562Z,7.57
2023-05-14T04:13:38.370Z,7.60
2023-05-14T04:16:07.291Z,6.60
2023-05-14T04:18:36.947Z,8.50
2023-05-14T04:21:05.820Z,8.47
2023-05-14T04:23:34.196Z,8.40
2023-05-14T04:26:02.662Z,10.23
2023-05-14T04:28:31.035Z,11.83
2023-05-14T04:31:01.388Z,12.70
2023-05-14T04:33:29.635Z,14.70
2023-05-14T04:35:57.919Z,14.80
2023-05-14T04:38:26.359Z,15.03
2023-05-14T04:40:54.638Z,15.97
2023-05-14T04:43:22.979Z,16.37
2023-05-14T04:45:51.904Z,17.10
2023-05-14T04:48:21.781Z,17.17
2023-05-14T04:50:50.006Z,15.83
2023-05-14T04:53:18.355Z,15.97
2023-05-14T04:55:46.740Z,15.57
2023-05-14T04:58:15.056Z,15.73
2023-05-14T05:00:43.855Z,15.00
2023-05-14T05:03:12.726Z,16.03
2023-05-14T05:05:42.604Z,16.23
2023-05-14T05:08:11.566Z,15.27
2023-05-14T05:10:39.919Z,14.63
2023-05-14T05:13:08.251Z,13.93
2023-05-14T05:15:36.771Z,14.97
2023-05-14T05:18:05.561Z,14.23
2023-05-14T05:20:34.036Z,14.23
2023-05-14T05:23:04.032Z,14.07
2023-05-14T05:25:32.819Z,14.00
2023-05-14T05:28:01.200Z,13.33
2023-05-14T05:30:30.374Z,13.10
2023-05-14T05:32:58.863Z,14.10
2023-05-14T05:35:27.231Z,13.20
2023-05-14T05:37:55.653Z,13.23
2023-05-14T05:40:25.699Z,12.20
2023-05-14T05:42:54.136Z,14.20
2023-05-14T05:45:22.790Z,13.53
2023-05-14T05:47:51.358Z,13.60
2023-05-14T05:50:20.198Z,13.60
2023-05-14T05:52:51.391Z,14.53
2023-05-14T05:55:20.033Z,14.40
2023-05-14T05:57:49.721Z,12.80
2023-05-14T06:00:19.042Z,13.83
2023-05-14T06:02:48.291Z,14.17
2023-05-14T06:05:16.856Z,13.67
2023-05-14T06:07:45.321Z,14.87
2023-05-14T06:10:13.810Z,13.47
2023-05-14T06:12:42.164Z,13.53
2023-05-14T06:15:14.045Z,13.27
2023-05-14T06:17:43.452Z,12.70
2023-05-14T06:20:12.708Z,13.07
2023-05-14T06:22:41.046Z,12.83
2023-05-14T06:25:10.313Z,12.77
2023-05-14T06:27:38.641Z,13.20
2023-05-14T06:30:08.115Z,11.80
2023-05-14T06:32:38.913Z,11.87
2023-05-14T06:35:08.474Z,12.40
2023-05-14T06:37:36.960Z,11.57
2023-05-14T06:40:06.252Z,12.73
2023-05-14T06:42:34.500Z,12.20
2023-05-14T06:45:02.947Z,12.87
2023-05-14T06:47:31.349Z,12.77
2023-05-14T06:50:02.031Z,13.57
2023-05-14T06:52:30.546Z,13.57
2023-05-14T06:54:58.890Z,10.50
2023-05-14T06:57:27.234Z,9.20
2023-05-14T06:59:55.724Z,8.53
2023-05-14T07:02:24.463Z,8.73
2023-05-14T07:04:52.818Z,8.47
2023-05-14T07:07:23.438Z,9.87
2023-05-14T07:09:51.781Z,8.70
2023-05-14T07:12:20.185Z,8.57
2023-05-14T07:14:48.483Z,8.33
2023-05-14T07:17:18.682Z,8.00
2023-05-14T07:19:47.360Z,8.33
2023-05-14T07:22:15.803Z,8.13
2023-05-14T07:24:45.473Z,7.40
2023-05-14T07:27:14.004Z,5.40
2023-05-14T07:29:42.300Z,5.50
2023-05-14T07:32:11.429Z,4.03
2023-05-14T07:34:41.145Z,3.60
2023-05-14T07:37:09.572Z,3.80
2023-05-14T07:39:37.917Z,3.50
2023-05-14T07:42:07.884Z,3.20
2023-05-14T07:44:36.307Z,2.93
2023-05-14T07:47:07.046Z,2.57
2023-05-14T07:49:35.569Z,3.57
2023-05-14T07:52:04.766Z,2.80
2023-05-14T07:54:33.104Z,3.23
2023-05-14T07:57:01.701Z,3.13
2023-05-14T07:59:32.226Z,3.50
2023-05-14T08:02:00.690Z,3.43
2023-05-14T08:04:29.268Z,3.60
2023-05-14T08:06:58.358Z,3.43
2023-05-14T08:09:26.708Z,3.70
2023-05-14T08:11:55.051Z,3.63
2023-05-14T08:14:23.393Z,3.37
2023-05-14T08:16:53.271Z,3.00
2023-05-14T08:19:21.771Z,3.20
2023-05-14T08:21:50.208Z,2.93
2023-05-14T08:24:19.497Z,3.10
2023-05-14T08:26:47.791Z,3.27
2023-05-14T08:29:16.683Z,3.33
2023-05-14T08:31:45.246Z,3.80
2023-05-14T08:34:15.073Z,2.70
2023-05-14T08:36:43.505Z,3.37
2023-05-14T08:39:11.788Z,3.00
2023-05-14T08:41:41.274Z,3.47
2023-05-14T08:44:14.983Z,3.13
2023-05-14T08:46:43.592Z,3.60
2023-05-14T08:49:22.834Z,3.63
2023-05-14T08:51:51.358Z,3.50
2023-05-14T08:54:22.613Z,3.70
2023-05-14T08:56:53.299Z,3.03
2023-05-14T08:59:21.842Z,3.00
2023-05-14T09:01:53.043Z,3.33
2023-05-14T09:04:24.405Z,3.13
2023-05-14T09:06:54.185Z,3.50
2023-05-14T09:09:23.497Z,3.80
2023-05-14T09:11:52.853Z,3.97
2023-05-14T09:14:21.732Z,3.47
2023-05-14T09:16:51.273Z,3.60
2023-05-14T09:19:20.741Z,3.37
2023-05-14T09:21:51.230Z,3.33
2023-05-14T09:24:24.117Z,3.70
2023-05-14T09:26:53.801Z,3.73
2023-05-14T09:29:22.535Z,3.50
2023-05-14T09:31:52.350Z,3.87
2023-05-14T09:34:28.310Z,3.80
2023-05-14T09:37:00.380Z,4.17
2023-05-14T09:39:29.671Z,3.67
2023-05-14T09:41:58.394Z,3.73
2023-05-14T09:44:27.494Z,3.67
2023-05-14T09:46:56.259Z,4.00
2023-05-14T09:49:24.825Z,3.60
2023-05-14T09:51:53.377Z,4.00
2023-05-14T09:54:23.119Z,4.03
2023-05-14T09:56:52.530Z,4.40
2023-05-14T09:59:21.727Z,3.80
2023-05-14T10:01:52.446Z,3.20
2023-05-14T10:04:21.390Z,4.00
2023-05-14T10:06:54.326Z,4.23
2023-05-14T10:09:28.549Z,3.80
2023-05-14T10:12:01.314Z,4.27
2023-05-14T10:14:34.715Z,4.93
2023-05-14T10:17:04.387Z,5.53
2023-05-14T10:19:34.851Z,8.37
2023-05-14T10:22:06.446Z,4.03
2023-05-14T10:24:38.907Z,3.57
2023-05-14T10:27:07.760Z,4.30
2023-05-14T10:29:39.587Z,3.13
2023-05-14T10:32:10.172Z,3.33
2023-05-14T10:34:41.175Z,3.53
2023-05-14T10:37:12.332Z,3.73
2023-05-14T10:39:47.162Z,3.90
2023-05-14T10:42:18.408Z,2.93
2023-05-14T10:44:55.574Z,3.13
2023-05-14T10:47:24.430Z,3.07
2023-05-14T10:49:55.598Z,3.17
2023-05-14T10:52:26.401Z,3.00
2023-05-14T10:54:58.775Z,3.03
2023-05-14T10:57:29.580Z,4.03
2023-05-14T10:59:59.349Z,2.53
2023-05-14T11:02:28.842Z,3.20
2023-05-14T11:04:59.900Z,2.63
2023-05-14T11:07:33.827Z,3.30
2023-05-14T11:10:05.801Z,2.77
2023-05-14T11:12:34.976Z,3.63
2023-05-14T11:15:05.620Z,2.90
2023-05-14T11:17:34.425Z,3.30
2023-05-14T11:20:02.893Z,3.17
2023-05-14T11:22:31.394Z,4.00
2023-05-14T11:24:59.790Z,2.77
2023-05-14T11:27:31.538Z,3.77
2023-05-14T11:30:02.295Z,3.40
2023-05-14T11:32:30.768Z,4.07
2023-05-14T11:34:59.298Z,3.87
2023-05-14T11:37:27.749Z,4.10
2023-05-14T11:39:57.233Z,4.00
2023-05-14T11:42:25.956Z,4.10
2023-05-14T11:44:55.686Z,4.50
2023-05-14T11:47:24.122Z,3.80
2023-05-14T11:49:52.421Z,3.20
2023-05-14T11:52:22.095Z,3.10
2023-05-14T11:54:51.025Z,3.40
2023-05-14T11:57:21.212Z,5.27
2023-05-14T11:59:56.109Z,4.10
2023-05-14T12:02:29.160Z,4.20
2023-05-14T12:04:58.585Z,5.07
2023-05-14T12:07:30.767Z,3.67
2023-05-14T12:10:02.574Z,4.00
2023-05-14T12:12:36.617Z,8.13
2023-05-14T12:15:12.544Z,21.53
2023-05-14T12:17:42.811Z,9.43
2023-05-14T12:20:13.164Z,3.87
2023-05-14T12:22:43.851Z,4.30
2023-05-14T12:25:14.405Z,4.33
2023-05-14T12:27:45.480Z,3.60
2023-05-14T12:33:04.823Z,3.97
2023-05-14T12:35:33.258Z,4.13
2023-05-14T12:38:02.167Z,4.00
2023-05-14T12:40:30.508Z,3.73
2023-05-14T12:42:58.876Z,4.37
2023-05-14T12:45:27.265Z,12.00
2023-05-14T12:47:55.616Z,6.70
2023-05-14T12:50:25.586Z,3.60
2023-05-14T12:52:54.233Z,4.17
2023-05-14T12:55:23.014Z,4.27
2023-05-14T12:57:51.523Z,4.23
2023-05-14T13:00:21.427Z,6.27
2023-05-14T13:02:49.844Z,4.37
2023-05-14T13:05:18.246Z,4.80
2023-05-14T13:07:48.145Z,4.83
2023-05-14T13:10:18.425Z,4.23
2023-05-14T13:12:46.780Z,3.63
2023-05-14T13:15:15.144Z,3.97
2023-05-14T13:17:43.519Z,3.70
2023-05-14T13:20:12.638Z,4.13
2023-05-14T13:22:41.177Z,4.00
2023-05-14T13:25:11.487Z,3.77
2023-05-14T13:27:39.804Z,4.20
2023-05-14T13:30:09.344Z,3.63
2023-05-14T13:32:39.647Z,3.47
2023-05-14T13:35:10.530Z,3.47
2023-05-14T13:37:38.893Z,3.43
2023-05-14T13:40:08.651Z,3.30
2023-05-14T13:42:39.760Z,3.33
2023-05-14T13:45:09.965Z,3.50
2023-05-14T13:47:39.877Z,3.10
2023-05-14T13:50:09.368Z,3.47
2023-05-14T13:52:39.123Z,3.53
2023-05-14T13:55:08.705Z,3.03
2023-05-14T13:57:39.877Z,3.20
2023-05-14T14:00:09.665Z,3.30
2023-05-14T14:02:37.976Z,2.43
2023-05-14T14:05:07.308Z,2.87
2023-05-14T14:07:35.612Z,2.67
2023-05-14T14:10:04.913Z,2.53
2023-05-14T14:12:33.359Z,3.00
2023-05-14T14:15:04.237Z,3.27
2023-05-14T14:17:34.037Z,3.00
2023-05-14T14:20:06.116Z,3.27
2023-05-14T14:22:34.778Z,2.60
2023-05-14T14:25:03.082Z,2.70
2023-05-14T14:27:32.227Z,2.53
2023-05-14T14:30:00.534Z,2.60
2023-05-14T14:32:30.885Z,2.30
2023-05-14T14:34:59.258Z,2.90
2023-05-14T14:37:27.716Z,2.73
2023-05-14T14:39:56.075Z,4.03
2023-05-14T14:42:24.522Z,2.40
2023-05-14T14:44:52.863Z,2.53
2023-05-14T14:47:21.137Z,2.90
2023-05-14T14:49:50.843Z,2.63
2023-05-14T14:52:19.166Z,2.67
2023-05-14T14:54:47.472Z,2.77
2023-05-14T14:57:15.782Z,2.90
2023-05-14T14:59:44.361Z,2.67
2023-05-14T15:02:12.741Z,3.00
2023-05-14T15:04:41.218Z,2.90
2023-05-14T15:07:11.300Z,3.33
2023-05-14T15:09:39.668Z,2.90
2023-05-14T15:12:09.147Z,3.07
2023-05-14T15:14:37.594Z,2.57
2023-05-14T15:17:06.724Z,3.00
2023-05-14T15:19:35.182Z,3.20
2023-05-14T15:22:03.811Z,3.60
2023-05-14T15:24:33.558Z,3.20
2023-05-14T15:27:02.026Z,3.13
2023-05-14T15:29:30.481Z,3.60
2023-05-14T15:31:58.904Z,3.50
2023-05-14T15:34:27.516Z,3.17
2023-05-14T15:36:56.733Z,3.50
2023-05-14T15:39:25.098Z,4.63
2023-05-14T15:41:54.835Z,3.73
2023-05-14T15:44:23.179Z,5.83
2023-05-14T15:46:51.562Z,4.43
2023-05-14T15:49:19.892Z,3.80
2023-05-14T15:51:48.447Z,14.30
2023-05-14T15:54:16.784Z,3.73
2023-05-14T15:56:45.291Z,3.90
2023-05-14T15:59:16.606Z,3.50
2023-05-14T16:01:45.002Z,3.77
2023-05-14T16:04:13.492Z,3.77
2023-05-14T16:06:42.806Z,4.27
2023-05-14T16:09:11.438Z,3.23
2023-05-14T16:11:39.753Z,3.60
2023-05-14T16:14:08.117Z,3.87
2023-05-14T16:16:38.017Z,3.60
2023-05-14T16:19:06.485Z,3.63
2023-05-14T16:21:35.409Z,3.90
2023-05-14T16:24:03.742Z,3.47
2023-05-14T16:26:32.169Z,3.60
2023-05-14T16:29:00.667Z,3.63
2023-05-14T16:31:29.060Z,3.60
2023-05-14T16:33:59.432Z,3.13
2023-05-14T16:36:28.254Z,3.80
2023-05-14T16:39:07.081Z,4.67
2023-05-14T16:41:36.927Z,3.30
2023-05-14T16:44:05.398Z,3.43
2023-05-14T16:46:34.591Z,5.30
2023-05-14T16:49:04.337Z,4.17
2023-05-14T16:51:32.940Z,3.60
2023-05-14T16:54:03.704Z,4.50
2023-05-14T16:56:32.536Z,4.33
2023-05-14T16:59:00.995Z,4.67
2023-05-14T17:01:29.833Z,4.03
2023-05-14T17:03:58.261Z,3.70
2023-05-14T17:06:28.061Z,3.53
2023-05-14T17:08:56.561Z,3.13
2023-05-14T17:11:25.073Z,4.50
2023-05-14T17:13:53.331Z,4.17
2023-05-14T17:16:22.147Z,4.30
2023-05-14T17:18:50.585Z,3.50
2023-05-14T17:21:18.912Z,3.80
2023-05-14T17:23:48.809Z,3.83
2023-05-14T17:26:17.579Z,4.60
2023-05-14T17:28:46.095Z,4.70
2023-05-14T17:31:19.073Z,4.83
2023-05-14T17:33:47.429Z,4.33
2023-05-14T17:36:15.774Z,4.97
2023-05-14T17:38:44.073Z,5.37
2023-05-14T17:41:13.891Z,5.37
2023-05-14T17:43:42.198Z,6.17
2023-05-14T17:46:10.645Z,6.23
2023-05-14T17:48:39.050Z,5.73
2023-05-14T17:51:07.349Z,5.63
2023-05-14T17:53:35.815Z,5.03
2023-05-14T17:56:04.237Z,6.47
2023-05-14T17:58:37.752Z,5.33
2023-05-14T18:01:10.546Z,5.67
2023-05-14T18:03:39.438Z,5.40
2023-05-14T18:06:07.910Z,5.23
2023-05-14T18:08:36.272Z,21.33
2023-05-14T18:11:04.745Z,5.60
2023-05-14T18:13:35.082Z,5.40
2023-05-14T18:16:03.977Z,5.43
2023-05-14T18:18:32.717Z,5.83
2023-05-14T18:21:01.303Z,5.43
2023-05-14T18:23:29.820Z,5.13
2023-05-14T18:25:58.176Z,19.67
2023-05-14T18:28:26.590Z,9.00
2023-05-14T18:30:56.342Z,8.67
2023-05-14T18:33:24.726Z,7.40
2023-05-14T18:35:53.582Z,6.77
2023-05-14T18:38:21.942Z,6.27
2023-05-14T18:40:50.562Z,5.80
2023-05-14T18:43:19.791Z,7.00
2023-05-14T18:45:48.419Z,6.67
2023-05-14T18:48:18.197Z,6.23
2023-05-14T18:50:46.477Z,6.10
2023-05-14T18:53:14.839Z,6.23
2023-05-14T18:55:43.234Z,6.67
2023-05-14T18:58:12.110Z,5.80
2023-05-14T19:00:40.457Z,6.17
2023-05-14T19:03:08.824Z,6.97
2023-05-14T19:05:40.184Z,6.17
2023-05-14T19:08:11.933Z,6.10
2023-05-14T19:10:40.255Z,5.57
2023-05-14T19:13:08.625Z,5.87
2023-05-14T19:15:37.010Z,5.90
2023-05-14T19:18:05.725Z,6.23
2023-05-14T19:20:34.098Z,6.83
2023-05-14T19:23:03.874Z,6.60
2023-05-14T19:25:32.763Z,8.73
2023-05-14T19:28:03.754Z,7.67
2023-05-14T19:30:32.280Z,6.90
2023-05-14T19:33:00.746Z,9.43
2023-05-14T19:35:29.216Z,8.00
2023-05-14T19:37:57.515Z,7.83
2023-05-14T19:40:27.385Z,8.00
2023-05-14T19:42:55.684Z,9.90
2023-05-14T19:45:24.280Z,9.50
2023-05-14T19:47:52.777Z,9.40
2023-05-14T19:50:21.207Z,8.93
2023-05-14T19:52:49.733Z,8.93
2023-05-14T19:55:18.194Z,10.10
2023-05-14T19:57:47.894Z,10.73
2023-05-14T20:00:16.693Z,10.67
2023-05-14T20:02:45.080Z,10.17
2023-05-14T20:05:13.989Z,10.60
2023-05-14T20:07:42.662Z,10.00
2023-05-14T20:10:11.882Z,8.97
2023-05-14T20:12:40.221Z,10.63
2023-05-14T20:15:11.054Z,9.10
2023-05-14T20:17:39.602Z,10.43
2023-05-14T20:20:09.972Z,7.60
2023-05-14T20:22:40.112Z,7.23
2023-05-14T20:25:09.145Z,7.60
2023-05-14T20:27:37.468Z,6.80
2023-05-14T20:30:07.123Z,6.83
2023-05-14T20:32:37.549Z,6.80
2023-05-14T20:35:06.728Z,7.43
2023-05-14T20:37:35.093Z,5.93
2023-05-14T20:40:05.008Z,5.93
2023-05-14T20:42:33.494Z,5.80
2023-05-14T20:45:01.837Z,5.23
2023-05-14T20:47:31.451Z,5.90
2023-05-14T20:50:01.456Z,5.07
2023-05-14T20:52:29.801Z,4.87
2023-05-14T20:55:00.794Z,5.43
2023-05-14T20:57:30.406Z,5.00
2023-05-14T20:59:58.730Z,5.20
2023-05-14T21:02:27.270Z,5.30
2023-05-14T21:04:55.773Z,4.73
2023-05-14T21:07:27.104Z,7.40
2023-05-14T21:09:57.454Z,4.57
2023-05-14T21:12:25.850Z,4.97
2023-05-14T21:14:54.249Z,5.20
2023-05-14T21:17:22.691Z,5.13
2023-05-14T21:19:51.058Z,5.63
2023-05-14T21:22:19.426Z,5.30
2023-05-14T21:24:50.264Z,5.53
2023-05-14T21:27:18.651Z,5.13
2023-05-14T21:29:47.265Z,5.03
2023-05-14T21:32:15.676Z,4.73
2023-05-14T21:34:44.355Z,4.40
2023-05-14T21:37:12.843Z,3.80
2023-05-14T21:39:41.142Z,5.67
2023-05-14T21:42:11.332Z,4.57
2023-05-14T21:44:39.619Z,4.50
2023-05-14T21:47:08.589Z,3.67
2023-05-14T21:49:36.980Z,4.57
2023-05-14T21:52:05.924Z,4.20
2023-05-14T21:54:34.256Z,4.30
2023-05-14T21:57:02.888Z,4.13
2023-05-14T21:59:35.207Z,3.67
2023-05-14T22:02:07.215Z,3.90
2023-05-14T22:04:36.426Z,3.60
2023-05-14T22:07:04.984Z,3.57
2023-05-14T22:09:33.354Z,3.97
2023-05-14T22:12:01.898Z,3.90
2023-05-14T22:14:31.038Z,3.50
2023-05-14T22:17:00.806Z,3.73
2023-05-14T22:19:29.274Z,3.70
2023-05-14T22:21:57.819Z,3.57
2023-05-14T22:24:26.185Z,3.60
2023-05-14T22:26:54.757Z,3.33
2023-05-14T22:29:23.078Z,3.40
2023-05-14T22:31:51.733Z,4.33
2023-05-14T22:34:21.493Z,3.80
2023-05-14T22:36:49.834Z,2.90
2023-05-14T22:39:18.214Z,3.63
2023-05-14T22:41:46.552Z,3.50
2023-05-14T22:44:15.392Z,3.53
2023-05-14T22:46:43.737Z,3.33
2023-05-14T22:49:12.051Z,3.93
2023-05-14T22:51:42.574Z,3.70
2023-05-14T22:54:12.008Z,3.83
2023-05-14T22:56:40.355Z,4.00
2023-05-14T22:59:08.828Z,4.60
2023-05-14T23:01:37.206Z,3.23
2023-05-14T23:04:05.665Z,3.60
2023-05-14T23:06:34.030Z,3.63
2023-05-14T23:09:03.704Z,4.53
2023-05-14T23:11:32.063Z,3.90
2023-05-14T23:14:00.890Z,4.13
2023-05-14T23:16:29.188Z,4.53
2023-05-14T23:18:57.720Z,4.30
2023-05-14T23:21:26.145Z,4.33
2023-05-14T23:23:54.459Z,4.40
2023-05-14T23:26:24.149Z,4.10
2023-05-14T23:28:52.551Z,4.37
2023-05-14T23:31:20.858Z,4.77
2023-05-14T23:33:49.247Z,5.37
2023-05-14T23:36:17.576Z,5.10
2023-05-14T23:38:46.081Z,4.77
2023-05-14T23:41:14.373Z,5.13
2023-05-14T23:43:44.069Z,5.80
2023-05-14T23:46:12.430Z,5.57
2023-05-14T23:48:40.767Z,4.97
2023-05-14T23:51:09.045Z,5.23
2023-05-14T23:53:37.511Z,5.60
2023-05-14T23:56:05.951Z,5.47
2023-05-14T23:58:34.411Z,5.57
